Time;durP1;ratioP1;P1;durP2;ratioP2;P2;SDS_P1;SDS_P2;PMS_P1;PMS_P2;Temp;Humidity;BMP_temperature;BMP_pressure;BME280_temperature;BME280_humidity;BME280_pressure;Samples;Min_cycle;Max_cycle;Signal;HPM_P1;HPM_P2
2022/01/21 00:01:21;;;;;;;10.95;3.15;;;-1.30;99.90;;;;;;5002894;28;20026;-77
2022/01/21 00:03:47;;;;;;;9.57;3.53;;;-1.40;99.90;;;;;;5025882;28;20061;-78
2022/01/21 00:06:13;;;;;;;13.43;3.30;;;-1.40;99.90;;;;;;5006154;28;20435;-77
2022/01/21 00:08:41;;;;;;;12.10;3.22;;;-1.50;99.90;;;;;;5023970;28;20028;-77
2022/01/21 00:11:08;;;;;;;9.23;2.90;;;-1.50;99.90;;;;;;5021944;28;20034;-77
2022/01/21 00:13:34;;;;;;;8.25;3.20;;;-1.40;99.90;;;;;;5006264;28;20021;-78
2022/01/21 00:16:13;;;;;;;12.23;3.50;;;-1.40;99.90;;;;;;5022587;28;20133;-78
2022/01/21 00:18:43;;;;;;;15.23;4.00;;;-1.50;99.90;;;;;;5023590;28;20021;-78
2022/01/21 00:32:23;;;;;;;10.73;4.05;;;-1.50;99.90;;;;;;5014565;28;20060;-78
2022/01/21 00:34:49;;;;;;;14.85;4.10;;;-1.50;99.90;;;;;;5023495;28;20022;-78
2022/01/21 00:37:14;;;;;;;8.50;3.50;;;-1.60;99.90;;;;;;5004379;28;20029;-77
2022/01/21 00:39:40;;;;;;;8.00;3.50;;;-1.50;99.90;;;;;;5023478;28;20043;-77
2022/01/21 00:42:25;;;;;;;12.25;3.42;;;-1.50;99.90;;;;;;5005130;28;20075;-79
2022/01/21 00:44:53;;;;;;;11.10;3.53;;;-1.40;99.90;;;;;;5003249;28;20033;-78
2022/01/21 00:47:19;;;;;;;8.85;3.60;;;-1.50;99.90;;;;;;5013065;28;20476;-76
2022/01/21 00:49:45;;;;;;;11.75;3.35;;;-1.50;99.90;;;;;;5002623;28;20036;-75
2022/01/21 00:52:10;;;;;;;8.63;3.08;;;-1.60;99.90;;;;;;5005369;28;20177;-75
2022/01/21 00:54:37;;;;;;;13.00;3.58;;;-1.70;99.90;;;;;;4974935;28;20396;-76
2022/01/21 00:57:03;;;;;;;9.98;2.78;;;-1.60;99.90;;;;;;4992432;28;20033;-76
2022/01/21 00:59:29;;;;;;;6.00;3.10;;;-1.60;99.90;;;;;;4987432;28;20439;-78
2022/01/21 01:01:54;;;;;;;10.65;2.90;;;-1.60;99.90;;;;;;4988905;28;20026;-78
2022/01/21 01:04:20;;;;;;;8.82;3.10;;;-1.50;99.90;;;;;;5004119;28;20607;-77
2022/01/21 01:06:46;;;;;;;6.43;2.60;;;-1.60;99.90;;;;;;5005814;28;20072;-76
2022/01/21 01:09:12;;;;;;;8.68;2.78;;;-1.50;99.90;;;;;;5001974;28;20092;-77
2022/01/21 01:22:18;;;;;;;7.70;2.50;;;-1.40;99.90;;;;;;5002491;28;20066;-76
2022/01/21 01:29:58;;;;;;;8.88;2.60;;;-1.30;99.90;;;;;;4992525;28;20504;-76
2022/01/21 01:32:26;;;;;;;9.50;2.92;;;-1.30;99.90;;;;;;4993884;28;20038;-78
2022/01/21 01:34:52;;;;;;;9.15;2.90;;;-1.30;99.90;;;;;;4999338;28;20495;-77
2022/01/21 01:37:39;;;;;;;10.25;2.63;;;-1.20;99.90;;;;;;5021668;28;20042;-77
2022/01/21 01:40:17;;;;;;;7.90;2.40;;;-1.30;99.90;;;;;;5003647;28;20033;-77
2022/01/21 01:50:58;;;;;;;9.85;2.95;;;-1.70;99.90;;;;;;5009352;28;20072;-79
2022/01/21 01:53:48;;;;;;;8.27;2.92;;;-1.80;99.90;;;;;;5010920;28;20027;-79
2022/01/21 01:56:17;;;;;;;9.77;2.42;;;-1.90;99.90;;;;;;5000801;28;20022;-79
2022/01/21 01:58:43;;;;;;;8.48;2.50;;;-1.90;99.90;;;;;;4996711;28;20022;-79
2022/01/21 02:01:09;;;;;;;9.95;2.60;;;-2.00;99.90;;;;;;5007906;28;20764;-78
2022/01/21 02:03:35;;;;;;;7.50;2.42;;;-1.90;99.90;;;;;;4994264;28;20041;-77
2022/01/21 02:06:00;;;;;;;12.63;3.03;;;-2.00;99.90;;;;;;4987133;28;20081;-76
2022/01/21 02:08:28;;;;;;;10.20;2.80;;;-2.10;99.90;;;;;;4994486;28;20387;-75
2022/01/21 02:10:54;;;;;;;9.63;3.08;;;-2.30;99.90;;;;;;5004070;28;20030;-75
2022/01/21 02:13:29;;;;;;;11.75;2.75;;;-2.30;99.90;;;;;;4994675;28;20029;-75
2022/01/21 02:24:06;;;;;;;7.57;2.60;;;-2.60;99.90;;;;;;5013624;28;20125;-75
2022/01/21 02:26:31;;;;;;;9.75;2.72;;;-2.60;99.90;;;;;;5014401;28;20091;-76
2022/01/21 02:28:59;;;;;;;10.45;2.80;;;-2.80;99.90;;;;;;5013641;28;20377;-76
2022/01/21 02:31:25;;;;;;;8.52;2.90;;;-2.80;99.90;;;;;;5016609;28;20109;-78
2022/01/21 02:33:51;;;;;;;8.40;2.58;;;-2.80;99.90;;;;;;5000185;28;20127;-78
2022/01/21 02:36:17;;;;;;;11.55;2.85;;;-2.80;99.90;;;;;;5004507;28;20030;-78
2022/01/21 02:38:42;;;;;;;12.05;3.05;;;-2.80;99.90;;;;;;4988297;28;20041;-79
2022/01/21 02:41:08;;;;;;;11.73;3.00;;;-2.70;99.90;;;;;;5002821;28;20030;-77
2022/01/21 02:43:33;;;;;;;9.18;2.72;;;-2.90;99.90;;;;;;4984505;28;20031;-75
2022/01/21 02:46:04;;;;;;;10.90;2.55;;;-2.90;99.90;;;;;;5010312;28;20038;-75
2022/01/21 02:48:34;;;;;;;7.93;2.65;;;-2.90;99.90;;;;;;5013948;28;20018;-75
2022/01/21 02:51:00;;;;;;;10.25;2.97;;;-2.90;99.90;;;;;;5012010;28;20057;-75
2022/01/21 02:53:38;;;;;;;8.10;2.83;;;-2.90;99.90;;;;;;5013852;28;20030;-75
2022/01/21 02:56:04;;;;;;;9.23;3.00;;;-3.00;99.90;;;;;;4985048;28;20049;-76
2022/01/21 02:58:29;;;;;;;13.77;3.65;;;-3.00;99.90;;;;;;5000657;28;20053;-75
2022/01/21 03:00:55;;;;;;;10.52;3.30;;;-3.00;99.90;;;;;;5005472;28;20450;-76
2022/01/21 03:03:20;;;;;;;8.80;3.45;;;-3.10;99.90;;;;;;5007337;28;20030;-76
2022/01/21 03:05:46;;;;;;;8.90;3.42;;;-3.10;99.90;;;;;;4985139;28;20392;-77
2022/01/21 03:08:11;;;;;;;10.38;3.47;;;-3.10;99.90;;;;;;4985375;28;20480;-76
2022/01/21 03:10:37;;;;;;;12.52;3.63;;;-3.10;99.90;;;;;;4991996;28;20029;-78
2022/01/21 03:13:02;;;;;;;8.35;2.78;;;-3.10;99.90;;;;;;5011641;28;20041;-78
2022/01/21 03:15:28;;;;;;;9.20;3.40;;;-3.00;99.90;;;;;;5006365;28;20037;-76
2022/01/21 03:17:54;;;;;;;8.63;2.85;;;-2.90;99.90;;;;;;5002013;28;20033;-77
2022/01/21 03:20:19;;;;;;;10.00;3.00;;;-2.90;99.90;;;;;;5000150;28;20400;-77
2022/01/21 03:22:45;;;;;;;12.57;3.38;;;-2.90;99.90;;;;;;5017979;28;20052;-77
2022/01/21 03:25:10;;;;;;;9.25;3.00;;;-2.80;99.90;;;;;;4987462;28;20026;-76
2022/01/21 03:27:36;;;;;;;7.60;2.72;;;-2.80;99.90;;;;;;4994978;28;20021;-76
2022/01/21 03:30:05;;;;;;;8.88;2.28;;;-2.90;99.90;;;;;;4984060;28;20030;-76
2022/01/21 03:32:31;;;;;;;9.30;3.42;;;-2.90;99.90;;;;;;4982613;28;20100;-76
2022/01/21 03:34:56;;;;;;;7.88;2.95;;;-2.90;99.90;;;;;;5004784;28;20481;-76
2022/01/21 03:37:22;;;;;;;15.23;3.38;;;-3.00;99.90;;;;;;5006483;28;20037;-76
2022/01/21 03:39:47;;;;;;;13.05;4.18;;;-3.00;99.90;;;;;;4993626;28;20030;-76
2022/01/21 03:42:13;;;;;;;8.05;3.20;;;-3.10;99.90;;;;;;5006312;28;20030;-76
2022/01/21 03:44:39;;;;;;;8.68;3.20;;;-3.30;99.90;;;;;;5001651;28;20029;-77
2022/01/21 03:47:05;;;;;;;7.30;3.10;;;-3.50;99.90;;;;;;5000604;28;20046;-77
2022/01/21 03:49:37;;;;;;;12.43;4.00;;;-3.60;99.90;;;;;;5005247;28;20049;-76
2022/01/21 03:52:04;;;;;;;9.43;3.70;;;-3.60;99.90;;;;;;4989345;28;20026;-76
2022/01/21 03:54:30;;;;;;;12.77;3.30;;;-3.70;99.90;;;;;;5002214;28;20030;-76
2022/01/21 03:56:56;;;;;;;12.32;6.18;;;-3.90;99.90;;;;;;4982455;28;20022;-77
2022/01/21 03:59:21;;;;;;;20.70;9.45;;;-3.90;99.90;;;;;;4995241;28;20032;-76
2022/01/21 04:01:47;;;;;;;14.05;6.60;;;-3.70;99.90;;;;;;4982433;28;20031;-77
2022/01/21 04:04:12;;;;;;;13.90;4.40;;;-3.70;99.90;;;;;;4987167;28;20061;-76
2022/01/21 04:06:38;;;;;;;10.20;4.00;;;-3.60;99.90;;;;;;5010860;28;20141;-76
2022/01/21 04:09:03;;;;;;;8.93;3.15;;;-3.60;99.90;;;;;;5013479;28;20032;-78
2022/01/21 04:11:29;;;;;;;9.32;3.10;;;-3.70;99.90;;;;;;4984606;28;20022;-78
2022/01/21 04:13:55;;;;;;;11.07;3.53;;;-3.80;99.90;;;;;;4989454;28;20056;-78
2022/01/21 04:16:21;;;;;;;10.52;3.45;;;-3.80;99.90;;;;;;4981039;28;20023;-78
2022/01/21 04:18:47;;;;;;;8.15;3.17;;;-3.90;99.90;;;;;;4995215;28;20089;-77
2022/01/21 04:21:13;;;;;;;9.27;3.08;;;-4.00;99.90;;;;;;4999145;28;20093;-77
2022/01/21 04:23:38;;;;;;;12.35;2.67;;;-4.00;99.90;;;;;;5012387;28;20147;-77
2022/01/21 04:26:04;;;;;;;8.45;2.33;;;-4.00;99.90;;;;;;4979356;28;20026;-77
2022/01/21 04:28:30;;;;;;;7.55;2.35;;;-4.10;99.90;;;;;;4992634;28;20022;-77
2022/01/21 04:30:57;;;;;;;8.63;2.80;;;-4.20;99.90;;;;;;5008206;28;20034;-77
2022/01/21 04:33:22;;;;;;;9.00;3.03;;;-4.20;99.90;;;;;;5003748;28;20117;-77
2022/01/21 04:35:48;;;;;;;7.50;3.05;;;-4.30;99.90;;;;;;4989659;28;20128;-77
2022/01/21 04:38:17;;;;;;;9.38;3.85;;;-4.40;99.90;;;;;;5002635;28;20037;-77
2022/01/21 04:40:51;;;;;;;10.98;2.58;;;-4.20;99.90;;;;;;4999700;28;20050;-78
2022/01/21 04:48:44;;;;;;;13.45;2.85;;;-4.00;99.90;;;;;;5005729;28;20526;-77
2022/01/21 04:51:14;;;;;;;10.82;3.35;;;-3.90;99.90;;;;;;4999636;28;20022;-77
2022/01/21 04:53:42;;;;;;;8.90;3.22;;;-3.90;99.90;;;;;;4981699;28;20040;-78
2022/01/21 04:56:08;;;;;;;12.88;3.80;;;-4.00;99.90;;;;;;5003568;28;20027;-77
2022/01/21 04:58:34;;;;;;;11.68;3.03;;;-3.90;99.90;;;;;;5006210;28;20100;-77
2022/01/21 05:01:04;;;;;;;12.35;2.92;;;-4.10;99.90;;;;;;4983781;28;20064;-77
2022/01/21 05:03:29;;;;;;;9.05;3.50;;;-4.40;99.90;;;;;;4999052;28;20036;-77
2022/01/21 05:05:55;;;;;;;12.35;3.28;;;-4.50;99.90;;;;;;4985402;28;20031;-76
2022/01/21 05:08:26;;;;;;;9.88;3.60;;;-4.60;99.90;;;;;;4987936;28;20026;-77
2022/01/21 05:10:52;;;;;;;11.30;4.28;;;-4.70;99.90;;;;;;4984911;28;20018;-77
2022/01/21 05:13:22;;;;;;;13.25;4.07;;;-4.70;99.90;;;;;;4981624;28;20037;-77
2022/01/21 05:16:08;;;;;;;15.27;4.38;;;-4.70;99.90;;;;;;4985597;28;20022;-76
2022/01/21 05:18:34;;;;;;;10.85;5.10;;;-4.60;99.90;;;;;;5005377;28;20022;-76
2022/01/21 05:20:59;;;;;;;14.95;5.30;;;-4.60;99.90;;;;;;5004537;28;20033;-76
2022/01/21 05:23:26;;;;;;;15.65;6.50;;;-4.60;99.90;;;;;;4981153;28;20030;-76
2022/01/21 05:25:52;;;;;;;16.23;6.15;;;-4.70;99.90;;;;;;4999140;28;20022;-76
2022/01/21 05:28:18;;;;;;;19.58;4.20;;;-4.70;99.90;;;;;;5006731;28;20034;-77
2022/01/21 05:30:44;;;;;;;15.95;4.05;;;-4.80;99.90;;;;;;4993865;28;20026;-77
2022/01/21 05:33:09;;;;;;;12.00;3.50;;;-4.90;99.90;;;;;;5012902;28;20065;-77
2022/01/21 05:35:35;;;;;;;10.48;4.80;;;-5.00;99.90;;;;;;5010629;28;20034;-77
2022/01/21 05:38:00;;;;;;;14.40;4.00;;;-4.90;99.90;;;;;;4986044;28;20037;-77
2022/01/21 05:40:26;;;;;;;15.77;7.93;;;-4.80;99.90;;;;;;4999168;28;20145;-77
2022/01/21 05:42:52;;;;;;;13.85;4.90;;;-4.80;99.90;;;;;;5002730;28;20068;-76
2022/01/21 05:48:01;;;;;;;15.23;4.45;;;-5.00;99.90;;;;;;5005087;28;20121;-77
2022/01/21 05:50:27;;;;;;;15.50;4.53;;;-4.90;99.90;;;;;;4984424;28;20109;-76
2022/01/21 05:52:55;;;;;;;12.88;6.07;;;-4.90;99.90;;;;;;4989039;28;20030;-76
2022/01/21 05:55:20;;;;;;;19.38;5.07;;;-5.00;99.90;;;;;;5008620;28;20032;-77
2022/01/21 05:57:46;;;;;;;12.50;4.45;;;-5.10;99.90;;;;;;5004525;28;20058;-77
2022/01/21 06:00:12;;;;;;;13.07;6.63;;;-5.10;99.90;;;;;;5002699;28;20038;-77
2022/01/21 06:02:38;;;;;;;12.55;4.78;;;-5.10;99.90;;;;;;4988815;28;20030;-78
2022/01/21 06:05:04;;;;;;;15.88;5.20;;;-5.00;99.90;;;;;;5009941;28;20632;-76
2022/01/21 06:07:30;;;;;;;11.30;6.57;;;-5.00;99.90;;;;;;5004276;28;20037;-76
2022/01/21 06:09:56;;;;;;;14.73;6.90;;;-5.00;99.90;;;;;;5001685;28;20018;-76
2022/01/21 06:12:21;;;;;;;13.18;5.88;;;-5.00;99.90;;;;;;4988010;28;20072;-75
2022/01/21 06:14:47;;;;;;;16.02;5.03;;;-5.00;99.90;;;;;;4990595;28;20048;-76
2022/01/21 06:17:13;;;;;;;12.65;4.85;;;-5.10;99.90;;;;;;4987105;28;20498;-77
2022/01/21 06:19:39;;;;;;;15.93;4.85;;;-5.20;99.90;;;;;;4984722;28;20034;-77
2022/01/21 06:22:05;;;;;;;14.25;4.53;;;-5.20;99.90;;;;;;4998551;28;20025;-76
2022/01/21 06:24:31;;;;;;;17.92;6.90;;;-5.20;99.90;;;;;;4985543;28;20504;-77
2022/01/21 06:27:01;;;;;;;13.52;5.07;;;-5.30;99.90;;;;;;4989269;28;20388;-77
2022/01/21 06:29:26;;;;;;;15.00;7.50;;;-5.20;99.90;;;;;;4999345;28;20488;-77
2022/01/21 06:31:52;;;;;;;14.20;4.75;;;-5.20;99.90;;;;;;4988650;28;20022;-77
2022/01/21 06:34:17;;;;;;;12.93;5.22;;;-5.20;99.90;;;;;;5012457;28;20029;-77
2022/01/21 06:36:43;;;;;;;21.85;8.55;;;-5.40;99.90;;;;;;5007423;28;20019;-77
2022/01/21 06:39:08;;;;;;;19.77;8.68;;;-5.40;99.90;;;;;;4992954;28;20057;-77
2022/01/21 06:41:34;;;;;;;16.50;8.90;;;-5.50;99.90;;;;;;4995351;28;20034;-77
2022/01/21 06:44:01;;;;;;;20.35;8.68;;;-5.50;99.90;;;;;;4995658;28;20481;-77
2022/01/21 06:46:26;;;;;;;20.73;10.27;;;-5.50;99.90;;;;;;5004367;28;20022;-77
2022/01/21 06:48:52;;;;;;;16.98;6.32;;;-5.40;99.90;;;;;;5002018;28;20397;-76
2022/01/21 06:51:17;;;;;;;15.73;6.70;;;-5.40;99.90;;;;;;4998333;28;20022;-76
2022/01/21 06:53:43;;;;;;;17.95;7.25;;;-5.40;99.90;;;;;;4985502;28;20109;-76
2022/01/21 06:56:08;;;;;;;19.10;7.32;;;-5.40;99.90;;;;;;4987447;28;20022;-76
2022/01/21 06:58:34;;;;;;;16.17;7.22;;;-5.40;99.90;;;;;;5007240;28;20032;-77
2022/01/21 07:00:59;;;;;;;18.08;7.40;;;-5.40;99.90;;;;;;5002971;28;20092;-76
2022/01/21 07:03:25;;;;;;;19.90;7.15;;;-5.30;99.90;;;;;;5000523;28;20469;-76
2022/01/21 07:05:50;;;;;;;20.27;7.60;;;-5.30;99.90;;;;;;5013876;28;20026;-76
2022/01/21 07:08:17;;;;;;;11.93;4.90;;;-5.10;99.90;;;;;;5000364;28;20511;-76
2022/01/21 07:10:43;;;;;;;15.65;7.05;;;-5.00;99.90;;;;;;4987637;28;20022;-76
2022/01/21 07:13:10;;;;;;;18.95;8.63;;;-4.80;99.90;;;;;;5009378;28;20026;-76
2022/01/21 07:15:35;;;;;;;21.25;6.82;;;-4.80;99.90;;;;;;4987386;28;20026;-76
2022/01/21 07:18:02;;;;;;;19.70;5.93;;;-4.60;99.90;;;;;;5007797;28;20044;-77
2022/01/21 07:20:28;;;;;;;17.65;6.07;;;-4.80;99.90;;;;;;5004138;28;20026;-76
2022/01/21 07:22:53;;;;;;;30.08;12.20;;;-5.00;99.90;;;;;;4982703;28;20037;-76
2022/01/21 07:25:19;;;;;;;27.58;11.02;;;-5.10;99.90;;;;;;5013420;28;20113;-75
2022/01/21 07:27:45;;;;;;;21.23;8.10;;;-5.10;99.90;;;;;;5000121;28;20026;-76
2022/01/21 07:30:12;;;;;;;13.32;7.00;;;-5.00;99.90;;;;;;4987096;28;20416;-76
2022/01/21 07:32:41;;;;;;;16.58;6.35;;;-4.80;99.90;;;;;;5006768;28;20480;-76
2022/01/21 07:35:09;;;;;;;21.02;6.38;;;-4.80;99.90;;;;;;5002644;28;20452;-76
2022/01/21 07:37:36;;;;;;;15.90;6.07;;;-4.90;99.90;;;;;;4982425;28;20053;-76
2022/01/21 07:40:02;;;;;;;21.48;10.95;;;-4.90;99.90;;;;;;5013247;28;20654;-76
2022/01/21 07:42:29;;;;;;;16.05;9.68;;;-4.70;99.90;;;;;;4982308;28;20124;-76
2022/01/21 07:44:54;;;;;;;18.75;7.93;;;-4.50;99.90;;;;;;5003201;28;20496;-76
2022/01/21 07:47:20;;;;;;;15.05;6.50;;;-4.30;99.90;;;;;;4996914;28;20022;-76
2022/01/21 07:49:46;;;;;;;18.98;9.75;;;-4.10;99.90;;;;;;4985444;28;20057;-76
2022/01/21 07:52:12;;;;;;;16.77;7.18;;;-3.90;99.90;;;;;;5005881;28;20030;-76
2022/01/21 07:54:37;;;;;;;19.70;10.90;;;-3.80;99.90;;;;;;5003113;28;20057;-76
2022/01/21 07:57:03;;;;;;;21.15;8.40;;;-3.70;99.90;;;;;;4991976;28;20022;-76
2022/01/21 07:59:29;;;;;;;23.55;10.52;;;-3.50;99.90;;;;;;4983495;28;20026;-76
2022/01/21 08:01:54;;;;;;;21.77;8.90;;;-3.40;99.90;;;;;;4981596;28;20032;-76
2022/01/21 08:04:20;;;;;;;21.92;7.45;;;-3.20;99.90;;;;;;4995087;28;20101;-76
2022/01/21 08:06:45;;;;;;;19.95;7.25;;;-3.10;99.90;;;;;;4979917;28;20465;-76
2022/01/21 08:09:11;;;;;;;21.83;6.57;;;-3.20;99.90;;;;;;4995317;28;20456;-77
2022/01/21 08:11:36;;;;;;;17.75;5.55;;;-3.10;99.90;;;;;;4997527;28;20029;-76
2022/01/21 08:14:02;;;;;;;14.88;8.02;;;-2.80;99.90;;;;;;4994950;28;20057;-76
2022/01/21 08:16:27;;;;;;;15.50;7.40;;;-2.60;99.90;;;;;;4996460;28;20026;-76
2022/01/21 08:18:54;;;;;;;19.58;7.22;;;-2.50;99.90;;;;;;5012017;28;20096;-76
2022/01/21 08:21:20;;;;;;;11.50;6.45;;;-2.30;99.90;;;;;;5008497;28;20014;-76
2022/01/21 08:23:51;;;;;;;18.48;6.95;;;-2.30;99.90;;;;;;5011949;28;20565;-75
2022/01/21 08:26:20;;;;;;;18.23;7.28;;;-2.30;99.90;;;;;;5006730;28;20093;-76
2022/01/21 08:28:46;;;;;;;16.02;6.88;;;-2.20;99.90;;;;;;5022598;28;20024;-77
2022/01/21 08:31:11;;;;;;;14.77;6.93;;;-2.20;99.90;;;;;;5010936;28;20455;-76
2022/01/21 08:33:37;;;;;;;18.33;8.05;;;-2.10;99.90;;;;;;5012273;28;20057;-76
2022/01/21 08:36:03;;;;;;;17.83;7.60;;;-2.10;99.90;;;;;;5008754;28;20029;-76
2022/01/21 08:38:28;;;;;;;17.85;8.45;;;-2.00;99.90;;;;;;5017113;28;20025;-76
2022/01/21 08:40:54;;;;;;;23.95;8.10;;;-2.00;99.90;;;;;;5014793;28;20056;-76
2022/01/21 08:43:19;;;;;;;16.40;8.13;;;-2.10;99.90;;;;;;5018214;28;20149;-76
2022/01/21 08:45:45;;;;;;;15.57;6.93;;;-2.00;99.90;;;;;;5013112;28;20119;-76
2022/01/21 08:48:10;;;;;;;16.42;6.93;;;-1.90;99.90;;;;;;5019620;28;20030;-78
2022/01/21 08:50:36;;;;;;;18.17;8.57;;;-1.90;99.90;;;;;;5005365;28;20368;-78
2022/01/21 08:53:35;;;;;;;20.23;9.32;;;-1.90;99.90;;;;;;5006172;28;20034;-77
2022/01/21 08:55:53;;;;;;;17.08;7.82;;;-1.70;99.90;;;;;;5020131;28;20037;-77
2022/01/21 08:58:18;;;;;;;19.40;8.38;;;-1.60;99.90;;;;;;5002365;28;20034;-77
2022/01/21 09:00:44;;;;;;;21.65;8.38;;;-1.60;99.90;;;;;;5018307;28;20416;-78
2022/01/21 09:03:10;;;;;;;15.80;7.28;;;-1.60;99.90;;;;;;5005819;28;20547;-77
2022/01/21 09:05:35;;;;;;;18.17;7.47;;;-1.50;99.90;;;;;;5022441;28;20022;-77
2022/01/21 09:08:00;;;;;;;15.63;7.18;;;-1.50;99.90;;;;;;5006904;28;20026;-77
2022/01/21 09:10:26;;;;;;;19.45;7.15;;;-1.50;99.90;;;;;;5002753;28;20041;-78
2022/01/21 09:12:52;;;;;;;16.05;7.30;;;-1.60;99.90;;;;;;5017381;28;20089;-77
2022/01/21 09:15:23;;;;;;;16.70;7.97;;;-1.50;99.90;;;;;;5003212;28;20017;-78
2022/01/21 09:17:49;;;;;;;17.92;9.52;;;-1.50;99.90;;;;;;5006016;28;20458;-78
2022/01/21 09:20:14;;;;;;;15.50;8.00;;;-1.30;99.90;;;;;;5007746;28;20117;-77
2022/01/21 09:22:40;;;;;;;23.13;9.45;;;-1.30;99.90;;;;;;5017137;28;20034;-78
2022/01/21 09:25:06;;;;;;;25.73;11.85;;;-1.20;99.90;;;;;;5013747;28;20028;-77
2022/01/21 09:27:32;;;;;;;22.60;12.90;;;-1.20;99.90;;;;;;5017511;28;20033;-78
2022/01/21 09:29:58;;;;;;;16.88;9.82;;;-1.10;99.90;;;;;;5006106;28;20029;-77
2022/01/21 09:32:23;;;;;;;18.50;9.13;;;-1.00;99.90;;;;;;5017699;28;20018;-78
2022/01/21 09:34:49;;;;;;;19.05;7.88;;;-0.80;99.90;;;;;;5017372;28;20032;-77
2022/01/21 09:37:14;;;;;;;15.82;6.85;;;-0.80;99.90;;;;;;5017061;28;20026;-78
2022/01/21 09:39:40;;;;;;;17.52;7.30;;;-0.90;99.90;;;;;;5012585;28;20030;-78
2022/01/21 09:42:10;;;;;;;19.85;7.13;;;-0.90;99.90;;;;;;5019749;28;20026;-77
2022/01/21 09:44:36;;;;;;;16.92;7.25;;;-1.00;99.90;;;;;;5022158;28;20014;-75
2022/01/21 09:47:04;;;;;;;16.20;7.13;;;-0.90;99.90;;;;;;5015298;28;20032;-76
2022/01/21 09:49:29;;;;;;;20.17;9.82;;;-0.80;99.90;;;;;;5023277;28;20064;-76
2022/01/21 09:52:04;;;;;;;16.08;8.45;;;-0.70;99.90;;;;;;5000345;28;20022;-76
2022/01/21 09:54:32;;;;;;;17.45;9.88;;;-0.60;99.90;;;;;;5009112;28;20100;-76
2022/01/21 09:56:59;;;;;;;14.65;9.02;;;-0.50;99.90;;;;;;5021245;28;20133;-77
2022/01/21 09:59:28;;;;;;;14.40;8.25;;;-0.40;99.90;;;;;;5008877;28;20046;-77
2022/01/21 10:01:56;;;;;;;17.15;8.52;;;-0.50;99.90;;;;;;5021523;28;20024;-77
2022/01/21 10:04:27;;;;;;;14.98;7.78;;;-0.50;99.90;;;;;;5015452;28;20023;-77
2022/01/21 10:06:54;;;;;;;15.05;8.45;;;-0.60;99.90;;;;;;5015367;28;20024;-76
2022/01/21 10:09:21;;;;;;;18.52;8.13;;;-0.40;99.90;;;;;;5009090;28;20056;-77
2022/01/21 10:11:49;;;;;;;16.95;9.32;;;-0.30;99.90;;;;;;5012238;28;20478;-77
2022/01/21 10:14:20;;;;;;;23.38;12.65;;;-0.30;99.90;;;;;;5014590;28;20022;-77
2022/01/21 10:16:46;;;;;;;31.15;21.67;;;-0.30;99.90;;;;;;5016085;28;20024;-77
2022/01/21 10:19:12;;;;;;;21.35;11.18;;;-0.20;99.90;;;;;;5022694;28;20421;-77
2022/01/21 10:21:43;;;;;;;15.27;8.57;;;-0.40;99.90;;;;;;5017601;28;20018;-77
2022/01/21 10:24:15;;;;;;;13.75;7.80;;;-0.40;99.90;;;;;;5017717;28;20057;-76
2022/01/21 10:26:49;;;;;;;15.02;8.30;;;-0.10;99.90;;;;;;5024130;28;20483;-76
2022/01/21 10:29:15;;;;;;;19.15;8.35;;;0.00;99.90;;;;;;5012754;28;20022;-76
2022/01/21 10:31:59;;;;;;;16.15;8.45;;;-0.20;99.90;;;;;;4996390;28;20092;-76
2022/01/21 10:34:45;;;;;;;17.23;8.27;;;-0.40;99.90;;;;;;5013972;28;20101;-76
2022/01/21 10:37:40;;;;;;;20.47;8.77;;;-0.20;99.90;;;;;;5014073;28;20104;-76
2022/01/21 10:40:10;;;;;;;19.63;10.48;;;-0.30;99.90;;;;;;4989840;28;20034;-76
2022/01/21 10:42:37;;;;;;;25.10;13.05;;;-0.30;99.90;;;;;;5017978;28;20037;-75
2022/01/21 10:45:07;;;;;;;25.23;12.73;;;-0.10;99.90;;;;;;5016327;28;20033;-76
2022/01/21 10:47:36;;;;;;;27.25;12.68;;;-0.10;99.90;;;;;;5022105;28;20025;-76
2022/01/21 10:50:05;;;;;;;16.58;9.13;;;0.00;99.90;;;;;;5012835;28;20022;-76
2022/01/21 10:52:42;;;;;;;20.05;9.30;;;0.10;99.90;;;;;;5013683;28;20030;-76
2022/01/21 10:55:32;;;;;;;14.73;8.65;;;0.00;99.90;;;;;;4996314;28;20024;-76
2022/01/21 10:58:09;;;;;;;21.73;10.27;;;-0.10;99.90;;;;;;5011583;28;20022;-76
2022/01/21 11:00:36;;;;;;;20.55;9.30;;;0.00;99.90;;;;;;5016206;28;20026;-76
2022/01/21 11:03:14;;;;;;;23.50;9.63;;;-0.20;99.90;;;;;;5013877;28;20033;-76
2022/01/21 11:05:44;;;;;;;21.23;8.90;;;-0.10;99.90;;;;;;5013071;28;20736;-76
2022/01/21 11:08:11;;;;;;;16.85;8.43;;;0.00;99.90;;;;;;5013802;28;20030;-75
2022/01/21 11:10:46;;;;;;;16.10;8.27;;;0.10;99.90;;;;;;5019715;28;20044;-76
2022/01/21 11:13:16;;;;;;;15.30;7.90;;;0.10;99.90;;;;;;5015628;28;20037;-76
2022/01/21 11:15:57;;;;;;;19.70;7.95;;;0.20;99.90;;;;;;5015418;28;20484;-76
2022/01/21 11:18:25;;;;;;;16.60;7.28;;;0.30;99.90;;;;;;5018348;28;20045;-76
2022/01/21 11:20:57;;;;;;;13.60;6.60;;;0.40;99.90;;;;;;5009845;28;20029;-76
2022/01/21 11:23:27;;;;;;;12.95;7.32;;;0.50;99.90;;;;;;5004398;28;20480;-76
2022/01/21 11:25:59;;;;;;;16.08;7.10;;;0.60;99.90;;;;;;5017651;28;20026;-76
2022/01/21 11:28:29;;;;;;;13.23;7.15;;;0.60;99.90;;;;;;5019387;28;20024;-76
2022/01/21 11:30:55;;;;;;;18.65;7.65;;;0.50;99.90;;;;;;5006189;28;20109;-76
2022/01/21 11:33:22;;;;;;;15.57;7.20;;;0.60;99.90;;;;;;5009043;28;20096;-76
2022/01/21 11:35:48;;;;;;;14.18;7.65;;;0.60;99.90;;;;;;5020797;28;20143;-76
2022/01/21 11:38:16;;;;;;;16.15;7.93;;;0.70;99.90;;;;;;5007971;28;20056;-76
2022/01/21 11:40:42;;;;;;;15.88;8.70;;;0.70;99.90;;;;;;5003115;28;20465;-76
2022/01/21 11:43:10;;;;;;;14.48;7.85;;;0.60;99.90;;;;;;5012151;28;20097;-76
2022/01/21 11:50:41;;;;;;;;;;;0.70;99.90;;;;;;5015109;28;20433;-75
2022/01/21 11:53:07;;;;;;;17.70;8.90;;;0.80;99.90;;;;;;5012799;28;20375;-75
2022/01/21 11:55:45;;;;;;;17.45;8.98;;;0.70;99.90;;;;;;5016686;28;20151;-75
2022/01/21 11:58:17;;;;;;;18.60;8.70;;;0.70;99.90;;;;;;4997134;28;20124;-74
2022/01/21 12:00:44;;;;;;;15.23;8.60;;;0.70;99.90;;;;;;5009947;28;20025;-75
2022/01/21 12:03:10;;;;;;;14.10;7.40;;;0.70;99.90;;;;;;5002892;28;20053;-75
2022/01/21 12:05:36;;;;;;;17.48;9.00;;;0.70;99.90;;;;;;4999858;28;20472;-75
2022/01/21 12:08:06;;;;;;;13.20;7.97;;;0.70;99.90;;;;;;5008896;28;20057;-75
2022/01/21 12:10:37;;;;;;;16.52;9.27;;;0.70;99.90;;;;;;5002335;28;20113;-75
2022/01/21 12:13:13;;;;;;;24.33;8.48;;;0.70;99.90;;;;;;5013905;28;20054;-75
2022/01/21 12:19:06;;;;;;;19.88;9.23;;;0.70;99.90;;;;;;5014908;28;20049;-75
2022/01/21 12:21:35;;;;;;;16.45;8.27;;;0.80;99.90;;;;;;5004139;28;20539;-75
2022/01/21 12:24:01;;;;;;;11.88;8.20;;;0.70;99.90;;;;;;5002501;28;20029;-75
2022/01/21 12:26:28;;;;;;;15.23;8.05;;;0.80;99.90;;;;;;5016507;28;20020;-75
2022/01/21 12:28:59;;;;;;;14.00;8.57;;;0.80;99.90;;;;;;5005482;28;20044;-74
2022/01/21 12:31:47;;;;;;;18.85;9.27;;;0.70;99.90;;;;;;4998651;28;20109;-75
2022/01/21 12:34:15;;;;;;;17.38;9.25;;;0.70;99.90;;;;;;5011993;28;20131;-76
2022/01/21 12:37:09;;;;;;;18.98;11.13;;;0.70;99.90;;;;;;5018056;28;20022;-75
2022/01/21 12:39:48;;;;;;;16.83;10.70;;;0.70;99.90;;;;;;5005321;28;20034;-75
2022/01/21 12:42:23;;;;;;;12.63;8.77;;;0.60;99.90;;;;;;5015663;28;20376;-75
2022/01/21 12:45:18;;;;;;;19.95;9.55;;;0.60;99.90;;;;;;5016471;28;20021;-76
2022/01/21 12:47:46;;;;;;;18.92;9.95;;;0.60;99.90;;;;;;5011072;28;20022;-76
2022/01/21 12:50:36;;;;;;;19.63;11.00;;;0.60;99.90;;;;;;5004025;28;20036;-76
2022/01/21 12:53:18;;;;;;;19.52;10.77;;;0.50;99.90;;;;;;4998795;28;20033;-76
2022/01/21 12:55:56;;;;;;;19.73;11.50;;;0.40;99.90;;;;;;5023259;28;20496;-77
2022/01/21 12:58:31;;;;;;;18.23;11.38;;;0.60;99.90;;;;;;5006676;28;20041;-77
2022/01/21 13:01:02;;;;;;;17.27;10.83;;;0.60;99.90;;;;;;5018792;28;20026;-77
2022/01/21 13:03:41;;;;;;;18.67;11.40;;;0.50;99.90;;;;;;5008589;28;20431;-76
2022/01/21 13:06:19;;;;;;;18.23;11.25;;;0.50;99.90;;;;;;5001706;28;20032;-76
2022/01/21 13:09:02;;;;;;;21.48;11.65;;;0.50;99.90;;;;;;5015159;28;20037;-77
2022/01/21 13:11:29;;;;;;;19.25;12.05;;;0.50;99.90;;;;;;5002265;28;20018;-77
2022/01/21 13:17:00;;;;;;;23.58;12.80;;;0.50;99.90;;;;;;5012257;28;20030;-78
2022/01/21 13:19:30;;;;;;;19.88;12.60;;;0.60;99.90;;;;;;5005173;28;20025;-76
2022/01/21 13:21:56;;;;;;;23.63;12.57;;;0.60;99.90;;;;;;5014176;28;20026;-78
2022/01/21 13:24:30;;;;;;;24.40;13.30;;;0.60;99.90;;;;;;5012785;28;20106;-78
2022/01/21 13:26:56;;;;;;;21.15;13.32;;;0.60;99.90;;;;;;5005844;28;20018;-78
2022/01/21 13:29:34;;;;;;;22.05;13.52;;;0.60;99.90;;;;;;5008405;28;20080;-77
2022/01/21 13:32:01;;;;;;;18.98;13.35;;;0.60;99.90;;;;;;5023688;28;20022;-78
2022/01/21 13:34:40;;;;;;;20.88;13.80;;;0.60;99.90;;;;;;5010197;28;20022;-78
2022/01/21 13:37:09;;;;;;;23.80;15.10;;;0.60;99.90;;;;;;5024458;28;20427;-77
2022/01/21 13:39:41;;;;;;;20.75;14.15;;;0.60;99.90;;;;;;5016176;28;20029;-77
2022/01/21 13:42:13;;;;;;;28.02;15.55;;;0.50;99.90;;;;;;5014986;28;20026;-77
2022/01/21 13:44:49;;;;;;;25.50;15.98;;;0.60;99.90;;;;;;5014470;28;20010;-77
2022/01/21 13:47:39;;;;;;;25.83;16.05;;;0.50;99.90;;;;;;5004195;28;20030;-78
2022/01/21 13:50:13;;;;;;;22.77;14.52;;;0.50;99.90;;;;;;5015818;28;20034;-78